Flight Track Log - Related Links

Times and Time Zones

All times are in EDT time to prevent confusion due to time zone crossing. See the FLG3933 flight status page for this flight to view local times or setup timezone preferences in your user account.


Time Position Orientation Groundspeed Altitude Reporting Facility
EDT Latitude Longitude Course Direction KTS MPH feet Rate Location/Type
Thu 11:12:33 AM 44.8667 -93.1500 95° East 162 186 2,500  Level Minneapolis TRACON
Thu 11:13:03 AM 44.8639 -93.1067 95° East 189 217 3,100 1,370 Climbing Minneapolis Center
Thu 11:14:05 AM 44.8581 -93.0172 95° East 238 274 4,600 1,902 Climbing Minneapolis Center
Thu 11:15:06 AM 44.9256 -92.9736 25° Northeast 293 337 7,000 1,790 Climbing Minneapolis Center
Thu 11:16:09 AM 45.0097 -92.9672 North 304 350 8,300 1,645 Climbing Minneapolis Center
Thu 11:17:10 AM 45.0714 -92.9019 37° Northeast 299 344 10,400 1,659 Climbing Minneapolis Center
Thu 11:18:12 AM 45.1142 -92.7881 62° Northeast 325 374 11,700 1,210 Climbing Minneapolis Center
Thu 11:19:14 AM 45.1719 -92.6347 62° Northeast 370 426 12,900 1,210 Climbing Minneapolis Center
Thu 11:20:16 AM 45.2228 -92.5006 62° Northeast 383 441 14,200 1,210 Climbing Minneapolis Center
Thu 11:21:18 AM 45.2397 -92.3525 81° East 392 451 15,400 1,210 Climbing Minneapolis Center
Thu 11:22:20 AM 45.2178 -92.1981 101° East 399 459 16,700 1,220 Climbing Minneapolis Center
Thu 11:23:21 AM 45.1958 -92.0444 101° East 400 460 17,900 878 Climbing Minneapolis Center
Thu 11:24:23 AM 45.1711 -91.8886 103° East 403 464 18,500 532 Climbing Minneapolis Center
Thu 11:25:25 AM 45.1467 -91.7239 102° East 421 484 19,000 532 Climbing Minneapolis Center
Thu 11:26:27 AM 45.1164 -91.5225 102° East 434 499 19,600 581 Climbing Minneapolis Center
Thu 11:27:29 AM 45.0894 -91.3522 103° East 440 506 20,200 537 Climbing Minneapolis Center
Thu 11:28:30 AM 45.0628 -91.1819 102° East 443 510 20,700 488 Climbing Minneapolis Center
Thu 11:29:32 AM 45.0356 -91.0094 103° East 448 516 21,200 484 Climbing Minneapolis Center
Thu 11:30:34 AM 45.0069 -90.8278 102° East 449 517 21,700 581 Climbing Minneapolis Center
Thu 11:31:36 AM 44.9794 -90.6575 103° East 447 514 22,400 634 Climbing Minneapolis Center
Thu 11:32:37 AM 44.9536 -90.4883 102° East 444 511 23,000 293 Climbing Minneapolis Center
Thu 11:33:39 AM 44.9247 -90.3186 103° East 446 513 23,000  Level Minneapolis Center
Thu 11:34:41 AM 44.8972 -90.1506 103° East 442 509 23,000  Level Minneapolis Center
Thu 11:35:43 AM 44.8639 -89.9497 103° East 440 506 23,000 -726 Level Minneapolis Center
Thu 11:36:45 AM 44.8361 -89.7814 103° East 443 510 21,500 -1,694 Descending Minneapolis Center
Thu 11:37:47 AM 44.8081 -89.6200 104° East 429 494 19,500 -2,000 Descending Minneapolis Center
Thu 11:38:48 AM 44.7808 -89.4597 103° East 410 472 17,400 -2,049 Descending Minneapolis Center
Thu 11:39:50 AM 44.7533 -89.3000 104° East 404 465 15,300 -1,645 Descending Minneapolis Center
Thu 11:40:52 AM 44.7272 -89.1511 104° East 380 437 14,000 -1,403 Descending Minneapolis Center
Thu 11:41:54 AM 44.7014 -89.0050 104° East 365 420 12,400 -1,597 Descending Minneapolis Center
Thu 11:42:56 AM 44.6794 -88.8792 104° East 335 386 10,700 -2,000 Descending Minneapolis Center
Thu 11:43:57 AM 44.6589 -88.7667 104° East 302 348 8,300 -2,488 Descending Minneapolis Center
Thu 11:44:59 AM 44.6408 -88.6592 103° East 287 330 5,600 -2,613 Descending Minneapolis Center
Thu 11:46:00 AM 44.6044 -88.5347 104° East  Level Estimated
Thu 11:53:00 AM 44.4846 -88.1297 90° East  Level Estimated
Thu 11:54:00 AM 44.4846 -88.1297 90° East  Level Estimated
Thu 11:55:00 AM 44.4846 -88.1297 90° East  Level Estimated
Thu 11:56:00 AM 44.4846 -88.1297 90° East  Level Estimated
Thu 11:57:00 AM 44.4846 -88.1297 90° East  Level Estimated
Thu 11:58:00 AM 44.4846 -88.1297 90° East  Level Estimated
Thu 11:59:00 AM 44.4846 -88.1297 90° East  Level Estimated
Thu 12:00:00 PM 44.4846 -88.1297 90° East  Level Estimated
Thu 12:01:00 PM 44.4846 -88.1297 90° East  Level Estimated

Login

Don't have an account? Register now (free) for customized features, flight alerts, and more!